Time;durP1;ratioP1;P1;durP2;ratioP2;P2;SDS_P1;SDS_P2;PMS_P1;PMS_P2;Temp;Humidity;BMP_temperature;BMP_pressure;BME280_temperature;BME280_humidity;BME280_pressure;Samples;Min_cycle;Max_cycle;Signal;HPM_P1;HPM_P2
2022/12/04 00:01:38;;;;;;;26.52;10.77;;;1.30;99.90;;;;;;20785646;28;20038;-41
2022/12/04 00:11:39;;;;;;;25.13;12.23;;;1.30;99.90;;;;;;20798408;28;20057;-41
2022/12/04 00:21:40;;;;;;;31.60;11.25;;;1.30;99.90;;;;;;20805456;28;20241;-42
2022/12/04 00:31:41;;;;;;;24.60;11.48;;;1.40;99.90;;;;;;20800054;28;21832;-41
2022/12/04 00:41:42;;;;;;;20.85;12.52;;;1.30;99.90;;;;;;20810497;28;20041;-41
2022/12/04 00:51:43;;;;;;;22.65;13.52;;;1.30;99.90;;;;;;20811283;28;20037;-41
2022/12/04 01:01:44;;;;;;;27.45;13.65;;;1.30;99.90;;;;;;20808429;28;20044;-41
2022/12/04 01:11:45;;;;;;;22.52;12.85;;;1.20;99.90;;;;;;20809269;28;20678;-42
2022/12/04 01:21:46;;;;;;;31.17;12.63;;;1.30;99.90;;;;;;20809773;28;20049;-42
2022/12/04 01:31:47;;;;;;;21.83;11.38;;;1.30;99.90;;;;;;20804988;28;20115;-41
2022/12/04 01:41:48;;;;;;;31.08;14.35;;;1.30;99.90;;;;;;20795683;28;20041;-42
2022/12/04 01:52:05;;;;;;;22.67;11.93;;;1.30;99.90;;;;;;20789398;28;20060;-42
2022/12/04 02:02:09;;;;;;;29.03;14.03;;;1.20;99.90;;;;;;20790499;28;20654;-42
2022/12/04 02:12:31;;;;;;;22.42;13.77;;;1.30;99.90;;;;;;20796915;28;20134;-41
2022/12/04 02:22:51;;;;;;;23.20;12.48;;;1.30;99.90;;;;;;20792117;28;20099;-41
2022/12/04 02:33:06;;;;;;;25.73;13.38;;;1.30;99.90;;;;;;20857053;28;20708;-42
2022/12/04 02:43:10;;;;;;;27.83;13.30;;;1.30;99.90;;;;;;20845765;28;20245;-42
2022/12/04 02:53:19;;;;;;;27.75;12.13;;;1.20;99.90;;;;;;20853123;28;20083;-41
2022/12/04 03:03:24;;;;;;;26.52;12.65;;;1.40;99.90;;;;;;20854754;28;20077;-41
2022/12/04 03:13:31;;;;;;;27.90;14.20;;;1.30;99.90;;;;;;20865988;28;20504;-42
2022/12/04 03:23:55;;;;;;;27.92;13.38;;;1.30;99.90;;;;;;20856413;28;20041;-41
2022/12/04 03:34:01;;;;;;;21.23;12.27;;;1.30;99.90;;;;;;21178240;22;20477;-41
2022/12/04 03:44:08;;;;;;;33.83;14.68;;;1.40;99.90;;;;;;20712793;28;20113;-41
2022/12/04 03:54:15;;;;;;;28.88;13.85;;;1.30;99.90;;;;;;20724936;28;22865;-40
2022/12/04 04:04:32;;;;;;;26.08;13.55;;;1.40;99.90;;;;;;20698396;28;20049;-41
2022/12/04 04:25:10;;;;;;;23.13;13.13;;;1.40;99.90;;;;;;20736473;28;20468;-41
2022/12/04 04:35:21;;;;;;;24.33;14.05;;;1.30;99.90;;;;;;20737812;28;20057;-40
2022/12/04 04:45:39;;;;;;;26.50;14.63;;;1.30;99.90;;;;;;20664888;28;20049;-41
2022/12/04 04:55:42;;;;;;;22.10;12.57;;;1.40;99.90;;;;;;20643582;28;20707;-41
2022/12/04 05:05:43;;;;;;;31.92;14.80;;;1.40;99.90;;;;;;20641295;28;20711;-41
2022/12/04 05:15:53;;;;;;;28.88;13.40;;;1.40;99.90;;;;;;20641548;28;20041;-41
2022/12/04 05:26:03;;;;;;;26.88;13.05;;;1.40;99.90;;;;;;20636220;28;21821;-41
2022/12/04 05:36:07;;;;;;;27.38;15.85;;;1.40;99.90;;;;;;20647503;28;20113;-41
2022/12/04 05:46:08;;;;;;;25.27;13.50;;;1.40;99.90;;;;;;20644398;28;20109;-41
2022/12/04 05:56:09;;;;;;;26.95;12.45;;;1.40;99.90;;;;;;20649908;28;20116;-41
2022/12/04 06:06:16;;;;;;;23.42;13.18;;;1.40;99.90;;;;;;20653754;28;20050;-41
2022/12/04 06:16:22;;;;;;;26.47;13.97;;;1.30;99.90;;;;;;20654739;28;20644;-41
2022/12/04 06:26:24;;;;;;;27.40;15.93;;;1.30;99.90;;;;;;20661393;28;20041;-40
2022/12/04 06:36:26;;;;;;;27.20;14.98;;;1.40;99.90;;;;;;20660705;28;20042;-41
2022/12/04 06:46:30;;;;;;;24.77;12.88;;;1.40;99.90;;;;;;20627517;28;20078;-41
2022/12/04 06:56:32;;;;;;;26.40;14.25;;;1.40;99.90;;;;;;20617823;28;20133;-41
2022/12/04 07:06:35;;;;;;;27.88;12.73;;;1.40;99.90;;;;;;20610559;28;20030;-41
2022/12/04 07:16:38;;;;;;;22.25;11.45;;;1.50;99.90;;;;;;20602331;28;20283;-41
2022/12/04 07:26:39;;;;;;;26.35;13.40;;;1.40;99.90;;;;;;20611631;28;20035;-41
2022/12/04 07:36:40;;;;;;;24.00;11.02;;;1.40;99.90;;;;;;20599444;28;20077;-41
2022/12/04 07:46:41;;;;;;;28.95;13.02;;;1.50;99.90;;;;;;20593342;28;20165;-40
2022/12/04 07:56:42;;;;;;;22.27;11.27;;;1.60;99.90;;;;;;20584385;28;20176;-41
2022/12/04 08:06:43;;;;;;;25.77;14.05;;;1.60;99.90;;;;;;20586781;28;20065;-41
2022/12/04 08:16:44;;;;;;;24.42;12.43;;;1.60;99.90;;;;;;20603884;28;20073;-40
2022/12/04 08:26:45;;;;;;;27.80;14.65;;;1.60;99.90;;;;;;20614283;28;20038;-40
2022/12/04 08:36:46;;;;;;;33.58;14.93;;;1.50;99.90;;;;;;20614367;28;20176;-41
2022/12/04 08:46:47;;;;;;;23.23;12.75;;;1.50;99.90;;;;;;20613573;28;20042;-41
2022/12/04 08:56:48;;;;;;;28.88;14.52;;;1.60;99.90;;;;;;20597534;28;20061;-41
2022/12/04 09:06:49;;;;;;;33.72;14.30;;;1.60;99.90;;;;;;20615408;28;20385;-40
2022/12/04 09:16:53;;;;;;;24.15;14.50;;;1.70;99.90;;;;;;20676994;28;20503;-40
2022/12/04 09:26:54;;;;;;;24.15;13.05;;;1.70;99.90;;;;;;20697847;28;20042;-41
2022/12/04 09:36:55;;;;;;;26.90;14.63;;;1.60;99.90;;;;;;20690601;28;20056;-40
2022/12/04 09:47:12;;;;;;;36.38;13.82;;;1.70;99.90;;;;;;20693224;28;20061;-41
2022/12/04 09:57:34;;;;;;;24.88;12.40;;;1.80;99.90;;;;;;20643560;28;20093;-41
2022/12/04 10:08:02;;;;;;;21.90;11.98;;;1.80;99.90;;;;;;20671202;28;20065;-41
2022/12/04 10:18:25;;;;;;;25.27;12.35;;;1.80;99.90;;;;;;20618627;28;21972;-41
2022/12/04 10:28:39;;;;;;;28.63;11.18;;;1.80;99.90;;;;;;20685018;28;20052;-41
2022/12/04 10:38:55;;;;;;;26.05;12.90;;;1.70;99.90;;;;;;20690522;28;20116;-41
2022/12/04 10:49:00;;;;;;;22.65;11.85;;;1.70;99.90;;;;;;20661625;28;20345;-41
2022/12/04 10:59:04;;;;;;;14.75;8.32;;;1.70;99.90;;;;;;20626495;28;20200;-40
2022/12/04 11:09:05;;;;;;;24.10;9.25;;;1.80;99.90;;;;;;20668888;28;20053;-41
2022/12/04 11:19:24;;;;;;;18.85;9.52;;;1.70;99.90;;;;;;20712664;28;20058;-40
2022/12/04 11:29:36;;;;;;;18.30;9.43;;;1.70;99.90;;;;;;20721362;28;20042;-41
2022/12/04 11:39:40;;;;;;;21.45;10.23;;;1.80;99.90;;;;;;20685855;28;20061;-41
2022/12/04 11:49:41;;;;;;;15.02;8.70;;;1.80;99.90;;;;;;20730503;28;20803;-41
2022/12/04 12:00:04;;;;;;;17.88;8.68;;;1.90;99.90;;;;;;20725427;28;20052;-41
2022/12/04 12:10:12;;;;;;;13.55;8.30;;;1.90;99.90;;;;;;20712252;28;20841;-41
2022/12/04 12:20:39;;;;;;;14.73;7.15;;;2.00;99.90;;;;;;20686343;28;20101;-41
2022/12/04 12:31:06;;;;;;;15.27;8.20;;;1.90;99.90;;;;;;20657629;28;20041;-40
2022/12/04 12:41:24;;;;;;;13.52;5.47;;;1.90;99.90;;;;;;20657145;28;20296;-41
2022/12/04 12:51:59;;;;;;;13.30;6.88;;;2.00;99.90;;;;;;20613475;28;20188;-41
2022/12/04 13:02:24;;;;;;;11.65;6.63;;;1.90;99.90;;;;;;20697287;28;20260;-41
2022/12/04 13:12:26;;;;;;;14.25;7.93;;;2.00;99.90;;;;;;20691675;28;20440;-41
2022/12/04 13:23:05;;;;;;;10.98;6.55;;;2.10;99.90;;;;;;20673393;28;20077;-41
2022/12/04 13:33:29;;;;;;;14.27;6.15;;;2.00;99.90;;;;;;20694034;28;20301;-41
2022/12/04 13:43:56;;;;;;;12.07;7.20;;;2.00;99.90;;;;;;20622686;28;20619;-40
2022/12/04 13:54:19;;;;;;;13.20;4.38;;;2.10;99.90;;;;;;20689837;28;20894;-41
2022/12/04 14:04:35;;;;;;;8.90;4.47;;;2.10;99.90;;;;;;20691527;28;20090;-41
2022/12/04 14:14:51;;;;;;;11.43;6.67;;;2.20;99.90;;;;;;20681861;28;20041;-41
2022/12/04 14:24:52;;;;;;;15.55;5.90;;;2.20;99.90;;;;;;20694994;28;20840;-41
2022/12/04 14:34:54;;;;;;;15.90;4.72;;;2.20;99.90;;;;;;20599052;28;20053;-41
2022/12/04 14:44:57;;;;;;;12.00;7.28;;;2.20;99.90;;;;;;20571849;28;20042;-41
2022/12/04 14:55:06;;;;;;;12.77;6.80;;;2.20;99.90;;;;;;20566460;28;20145;-41
2022/12/04 15:05:17;;;;;;;17.17;8.82;;;2.20;99.90;;;;;;20591896;28;20077;-41
2022/12/04 15:15:24;;;;;;;12.75;7.05;;;2.30;99.90;;;;;;20590384;28;20254;-41
2022/12/04 15:25:27;;;;;;;;;;;2.10;99.90;;;;;;20607545;28;20101;-41
2022/12/04 15:35:31;;;;;;;19.58;9.50;;;2.10;99.90;;;;;;20607122;28;19930;-41
2022/12/04 15:45:33;;;;;;;24.50;11.07;;;2.20;99.90;;;;;;20617039;28;20042;-41
2022/12/04 15:55:46;;;;;;;18.13;9.32;;;2.30;99.90;;;;;;20590336;28;20224;-40
2022/12/04 16:05:47;;;;;;;19.90;10.65;;;2.40;99.90;;;;;;20667517;28;21983;-41
2022/12/04 16:15:48;;;;;;;18.25;9.82;;;2.40;99.90;;;;;;20652993;28;20043;-40
2022/12/04 16:25:49;;;;;;;16.90;10.52;;;2.20;99.90;;;;;;20671205;28;20487;-41
2022/12/04 16:35:50;;;;;;;23.95;9.43;;;2.30;99.90;;;;;;20682459;28;21031;-41
2022/12/04 16:45:53;;;;;;;20.23;9.35;;;2.30;99.90;;;;;;20662385;28;20834;-41
2022/12/04 16:55:54;;;;;;;20.25;10.98;;;2.50;99.90;;;;;;20693256;28;20042;-41
2022/12/04 17:05:55;;;;;;;21.75;11.25;;;2.50;99.90;;;;;;20698790;28;20044;-41
2022/12/04 17:15:57;;;;;;;17.67;9.52;;;2.50;99.90;;;;;;20687991;28;20046;-41
2022/12/04 17:26:00;;;;;;;18.35;9.65;;;2.60;99.90;;;;;;20635776;28;20053;-41
2022/12/04 17:36:10;;;;;;;21.80;9.25;;;2.60;99.90;;;;;;20609060;28;20131;-40
2022/12/04 17:46:13;;;;;;;16.90;10.70;;;2.70;99.90;;;;;;20612743;28;20041;-41
2022/12/04 17:56:20;;;;;;;19.13;9.25;;;2.70;99.90;;;;;;20609215;28;20149;-40
2022/12/04 18:06:27;;;;;;;25.80;8.90;;;2.80;99.90;;;;;;20611455;28;20078;-40
2022/12/04 18:16:29;;;;;;;;;;;2.80;99.90;;;;;;20608387;28;20054;-41
2022/12/04 18:26:39;;;;;;;20.30;9.63;;;2.80;99.90;;;;;;20622287;28;20428;-40
2022/12/04 18:36:41;;;;;;;17.85;8.02;;;2.80;99.90;;;;;;20622279;28;20073;-41
2022/12/04 18:46:42;;;;;;;15.55;8.15;;;2.80;99.90;;;;;;20619886;28;20089;-41
2022/12/04 18:56:44;;;;;;;14.80;10.18;;;2.90;99.90;;;;;;20706248;28;21818;-41
2022/12/04 19:06:49;;;;;;;21.83;12.32;;;2.90;99.90;;;;;;20712484;28;20057;-41
2022/12/04 19:16:50;;;;;;;23.50;9.90;;;3.00;99.90;;;;;;20652505;28;20050;-41
2022/12/04 19:26:53;;;;;;;20.20;10.35;;;3.10;99.90;;;;;;20648659;28;20952;-41
2022/12/04 19:36:54;;;;;;;23.50;11.13;;;3.10;99.90;;;;;;20652288;28;20105;-40
2022/12/04 19:46:55;;;;;;;16.98;10.48;;;2.90;99.90;;;;;;20659343;28;20042;-41
2022/12/04 19:56:56;;;;;;;26.75;14.68;;;2.80;99.90;;;;;;20702244;28;20042;-41
2022/12/04 20:06:57;;;;;;;26.05;10.43;;;2.90;99.90;;;;;;20717023;28;20501;-41
2022/12/04 20:17:00;;;;;;;17.85;9.38;;;2.90;99.90;;;;;;20719692;28;20104;-41
2022/12/04 20:27:02;;;;;;;20.63;11.13;;;3.00;99.90;;;;;;20671457;28;20567;-41
2022/12/04 20:37:03;;;;;;;19.50;11.27;;;3.00;99.90;;;;;;20666228;28;20065;-41
2022/12/04 20:47:04;;;;;;;23.88;13.82;;;3.00;99.90;;;;;;20668151;28;20053;-41
2022/12/04 20:57:05;;;;;;;17.25;9.70;;;3.10;99.90;;;;;;20662493;28;20069;-41
2022/12/04 21:07:06;;;;;;;16.67;10.85;;;3.10;99.90;;;;;;20668393;28;20508;-41
2022/12/04 21:17:10;;;;;;;21.83;10.40;;;3.20;99.90;;;;;;20672167;28;20058;-41
2022/12/04 21:27:11;;;;;;;19.88;11.27;;;3.10;99.90;;;;;;20677797;28;20038;-41
2022/12/04 21:37:13;;;;;;;23.30;11.10;;;3.20;99.90;;;;;;20671654;28;20120;-41
2022/12/04 21:47:14;;;;;;;24.63;11.55;;;3.20;99.90;;;;;;20685625;28;20034;-41
2022/12/04 21:57:15;;;;;;;19.48;9.90;;;3.30;99.90;;;;;;20697463;28;20034;-41
2022/12/04 22:07:16;;;;;;;17.88;8.88;;;3.30;99.90;;;;;;20686280;28;20037;-41
2022/12/04 22:17:17;;;;;;;22.98;10.93;;;3.30;99.90;;;;;;20690618;28;20050;-41
2022/12/04 22:27:18;;;;;;;29.38;11.00;;;3.40;99.90;;;;;;20687355;28;20053;-41
2022/12/04 22:37:19;;;;;;;22.98;12.20;;;3.40;99.90;;;;;;20679013;28;20053;-41
2022/12/04 22:47:20;;;;;;;21.08;11.90;;;3.40;99.90;;;;;;20702954;28;20026;-41
2022/12/04 22:57:21;;;;;;;20.40;10.55;;;3.40;99.90;;;;;;20705325;28;21153;-41
2022/12/04 23:07:22;;;;;;;15.73;8.73;;;3.50;99.90;;;;;;20693161;28;21116;-41
2022/12/04 23:17:23;;;;;;;18.85;10.32;;;3.50;99.90;;;;;;20689839;28;20437;-41
2022/12/04 23:27:24;;;;;;;18.90;9.45;;;3.50;99.90;;;;;;20678802;28;20489;-41
2022/12/04 23:37:25;;;;;;;20.13;10.57;;;3.50;99.90;;;;;;20692975;28;20517;-41
2022/12/04 23:47:26;;;;;;;19.30;9.35;;;3.60;99.90;;;;;;20692617;28;20401;-41
2022/12/04 23:57:28;;;;;;;14.45;8.88;;;3.60;99.90;;;;;;20707001;28;20608;-41
